createdAt,value
2022-10-06T00:01:18.797Z,18.02
2022-10-06T00:03:47.939Z,18.08
2022-10-06T00:06:18.663Z,18.09
2022-10-06T00:08:48.633Z,18.08
2022-10-06T00:11:17.961Z,18.11
2022-10-06T00:13:46.823Z,18.16
2022-10-06T00:16:18.349Z,18.06
2022-10-06T00:18:46.997Z,18.20
2022-10-06T00:21:16.376Z,18.22
2022-10-06T00:23:44.755Z,18.19
2022-10-06T00:26:17.311Z,18.21
2022-10-06T00:28:48.544Z,18.24
2022-10-06T00:31:19.467Z,18.21
2022-10-06T00:33:50.071Z,18.27
2022-10-06T00:36:18.660Z,17.95
2022-10-06T00:38:47.173Z,18.02
2022-10-06T00:41:19.329Z,17.64
2022-10-06T00:43:51.555Z,17.60
2022-10-06T00:46:26.534Z,17.71
2022-10-06T00:49:03.565Z,17.59
2022-10-06T00:51:34.351Z,17.48
2022-10-06T00:54:03.808Z,17.42
2022-10-06T00:56:34.078Z,17.34
2022-10-06T00:59:02.445Z,17.33
2022-10-06T01:01:32.575Z,17.25
2022-10-06T01:04:07.246Z,17.22
2022-10-06T01:06:45.271Z,17.28
2022-10-06T01:09:17.834Z,17.32
2022-10-06T01:11:51.295Z,17.38
2022-10-06T01:14:22.547Z,17.45
2022-10-06T01:16:56.690Z,17.53
2022-10-06T01:19:36.372Z,17.54
2022-10-06T01:22:08.447Z,17.57
2022-10-06T01:24:38.784Z,17.65
2022-10-06T01:27:11.352Z,17.72
2022-10-06T01:29:40.355Z,17.76
2022-10-06T01:32:09.292Z,17.81
2022-10-06T01:34:38.088Z,17.85
2022-10-06T01:37:07.333Z,17.82
2022-10-06T01:39:35.952Z,17.89
2022-10-06T01:42:06.453Z,17.91
2022-10-06T01:44:35.067Z,17.91
2022-10-06T01:47:06.554Z,17.92
2022-10-06T01:49:35.223Z,17.93
2022-10-06T01:52:04.817Z,17.95
2022-10-06T01:54:33.640Z,17.93
2022-10-06T01:57:02.312Z,17.93
2022-10-06T01:59:32.693Z,17.91
2022-10-06T02:02:01.158Z,17.82
2022-10-06T02:04:31.769Z,17.68
2022-10-06T02:07:02.196Z,17.74
2022-10-06T02:09:31.401Z,17.80
2022-10-06T02:12:00.280Z,17.56
2022-10-06T02:14:32.125Z,17.68
2022-10-06T02:17:01.821Z,17.68
2022-10-06T02:19:30.250Z,17.58
2022-10-06T02:22:00.584Z,17.61
2022-10-06T02:24:30.201Z,17.66
2022-10-06T02:26:58.655Z,17.72
2022-10-06T02:29:27.211Z,17.73
2022-10-06T02:31:57.177Z,17.68
2022-10-06T02:34:27.820Z,17.73
2022-10-06T02:36:56.730Z,17.79
2022-10-06T02:39:26.056Z,17.79
2022-10-06T02:41:54.384Z,17.80
2022-10-06T02:44:25.261Z,17.72
2022-10-06T02:46:56.374Z,17.76
2022-10-06T02:49:25.135Z,17.79
2022-10-06T02:51:54.924Z,17.77
2022-10-06T02:54:23.376Z,17.73
2022-10-06T02:56:52.923Z,17.69
2022-10-06T02:59:21.456Z,17.63
2022-10-06T03:01:50.008Z,17.41
2022-10-06T03:04:20.162Z,17.47
2022-10-06T03:06:50.407Z,17.52
2022-10-06T03:09:23.236Z,17.41
2022-10-06T03:11:52.956Z,17.46
2022-10-06T03:14:47.744Z,17.43
2022-10-06T03:17:16.324Z,17.44
2022-10-06T03:19:51.196Z,17.49
2022-10-06T03:22:20.280Z,17.51
2022-10-06T03:24:56.361Z,17.51
2022-10-06T03:27:24.723Z,17.25
2022-10-06T03:29:57.306Z,17.31
2022-10-06T03:32:28.132Z,17.30
2022-10-06T03:34:57.205Z,17.33
2022-10-06T03:37:26.011Z,17.35
2022-10-06T03:39:55.961Z,17.36
2022-10-06T03:42:25.800Z,17.33
2022-10-06T03:44:55.224Z,17.33
2022-10-06T03:47:23.705Z,17.28
2022-10-06T03:49:52.188Z,17.25
2022-10-06T03:52:25.748Z,17.18
2022-10-06T03:54:56.350Z,17.08
2022-10-06T03:57:25.237Z,17.08
2022-10-06T03:59:53.709Z,16.91
2022-10-06T04:02:22.402Z,16.74
2022-10-06T04:04:51.850Z,16.52
2022-10-06T04:07:20.967Z,16.57
2022-10-06T04:09:49.720Z,16.65
2022-10-06T04:12:20.364Z,16.74
2022-10-06T04:14:49.028Z,16.82
2022-10-06T04:17:17.350Z,16.87
2022-10-06T04:19:45.759Z,16.89
2022-10-06T04:22:15.323Z,16.91
2022-10-06T04:24:44.092Z,16.91
2022-10-06T04:27:30.678Z,16.88
2022-10-06T04:30:11.494Z,16.90
2022-10-06T04:32:40.871Z,16.85
2022-10-06T04:35:10.515Z,16.75
2022-10-06T04:37:39.724Z,16.66
2022-10-06T04:40:09.692Z,16.62
2022-10-06T04:42:38.965Z,16.59
2022-10-06T04:45:12.813Z,16.58
2022-10-06T04:47:43.667Z,16.59
2022-10-06T04:50:12.296Z,16.46
2022-10-06T04:53:00.808Z,16.34
2022-10-06T04:55:29.405Z,16.29
2022-10-06T04:57:57.929Z,16.31
2022-10-06T05:00:28.580Z,16.29
2022-10-06T05:02:58.750Z,16.31
2022-10-06T05:05:27.401Z,16.24
2022-10-06T05:07:57.289Z,16.31
2022-10-06T05:10:26.126Z,16.29
2022-10-06T05:12:56.696Z,16.36
2022-10-06T05:15:25.196Z,16.37
2022-10-06T05:17:55.094Z,16.36
2022-10-06T05:20:24.184Z,16.43
2022-10-06T05:22:53.584Z,16.49
2022-10-06T05:25:22.182Z,16.51
2022-10-06T05:27:50.741Z,16.50
2022-10-06T05:30:19.211Z,16.53
2022-10-06T05:32:50.452Z,16.49
2022-10-06T05:35:21.348Z,16.45
2022-10-06T05:37:50.184Z,16.51
2022-10-06T05:40:18.960Z,16.55
2022-10-06T05:42:47.404Z,16.62
2022-10-06T05:45:16.284Z,16.65
2022-10-06T05:47:44.662Z,16.67
2022-10-06T05:50:13.010Z,16.54
2022-10-06T05:52:43.386Z,16.48
2022-10-06T05:55:11.697Z,16.52
2022-10-06T05:57:40.938Z,16.62
2022-10-06T06:00:10.903Z,16.68
2022-10-06T06:02:41.428Z,16.56
2022-10-06T06:05:11.109Z,16.42
2022-10-06T06:07:39.492Z,16.40
2022-10-06T06:10:10.537Z,16.66
2022-10-06T06:12:39.260Z,16.85
2022-10-06T06:15:48.627Z,17.06
2022-10-06T06:18:17.413Z,17.23
2022-10-06T06:20:55.582Z,17.31
2022-10-06T06:23:24.562Z,17.45
2022-10-06T06:26:02.684Z,17.66
2022-10-06T06:28:35.570Z,17.73
2022-10-06T06:31:07.137Z,17.89
2022-10-06T06:33:37.744Z,18.03
2022-10-06T06:36:14.528Z,18.28
2022-10-06T06:38:43.784Z,18.34
2022-10-06T06:41:17.981Z,18.52
2022-10-06T06:43:47.559Z,18.60
2022-10-06T06:46:27.379Z,18.73
2022-10-06T06:49:04.296Z,18.88
2022-10-06T06:51:36.919Z,18.89
2022-10-06T06:54:06.612Z,19.11
2022-10-06T06:56:40.226Z,19.28
2022-10-06T06:59:11.993Z,19.45
2022-10-06T07:01:47.354Z,19.63
2022-10-06T07:04:19.175Z,19.79
2022-10-06T07:06:53.306Z,19.94
2022-10-06T07:09:22.608Z,20.02
2022-10-06T07:11:54.988Z,20.05
2022-10-06T07:14:25.150Z,20.07
2022-10-06T07:17:11.698Z,20.14
2022-10-06T07:20:02.007Z,20.23
2022-10-06T07:22:50.300Z,20.38
2022-10-06T07:25:25.979Z,20.48
2022-10-06T07:28:04.048Z,20.61
2022-10-06T07:30:41.005Z,20.69
2022-10-06T07:33:19.741Z,20.77
2022-10-06T07:35:49.867Z,20.77
2022-10-06T07:38:25.686Z,20.81
2022-10-06T07:41:17.981Z,20.72
2022-10-06T07:43:47.043Z,20.64
2022-10-06T07:46:19.347Z,19.94
2022-10-06T07:49:21.308Z,19.82
2022-10-06T07:51:50.364Z,19.89
2022-10-06T07:54:22.837Z,19.53
2022-10-06T07:57:10.604Z,18.97
2022-10-06T07:59:41.634Z,18.90
2022-10-06T08:02:10.429Z,18.95
2022-10-06T08:04:39.130Z,18.39
2022-10-06T08:07:10.603Z,18.75
2022-10-06T08:09:39.025Z,18.46
2022-10-06T08:12:21.478Z,18.97
2022-10-06T08:14:51.270Z,19.11
2022-10-06T08:17:20.270Z,19.50
2022-10-06T08:19:48.678Z,18.92
2022-10-06T08:22:16.990Z,18.93
2022-10-06T08:25:04.661Z,18.60
2022-10-06T08:27:34.969Z,18.28
2022-10-06T08:30:07.260Z,18.43
2022-10-06T08:32:36.569Z,18.59
2022-10-06T08:35:05.583Z,18.81
2022-10-06T08:37:34.033Z,19.10
2022-10-06T08:40:02.473Z,18.69
2022-10-06T08:42:39.748Z,18.55
2022-10-06T08:45:15.877Z,19.22
2022-10-06T08:47:54.737Z,19.29
2022-10-06T08:50:26.921Z,19.86
2022-10-06T08:53:07.406Z,20.36
2022-10-06T08:55:42.875Z,20.69
2022-10-06T08:58:34.882Z,21.14
2022-10-06T09:01:15.293Z,20.57
2022-10-06T09:03:48.427Z,20.34
2022-10-06T09:06:27.134Z,20.12
2022-10-06T09:08:59.922Z,20.08
2022-10-06T09:11:47.697Z,19.42
2022-10-06T09:14:21.989Z,19.45
2022-10-06T09:16:55.317Z,19.28
2022-10-06T09:19:36.443Z,19.79
2022-10-06T09:22:07.972Z,20.14
2022-10-06T09:24:46.985Z,20.48
2022-10-06T09:27:19.562Z,20.93
2022-10-06T09:29:50.000Z,21.18
2022-10-06T09:32:21.162Z,21.44
2022-10-06T09:34:52.686Z,21.65
2022-10-06T09:37:21.088Z,21.82
2022-10-06T09:39:51.254Z,22.03
2022-10-06T09:42:24.164Z,22.23
2022-10-06T09:45:01.741Z,22.39
2022-10-06T09:47:36.601Z,22.57
2022-10-06T09:50:16.216Z,22.64
2022-10-06T09:53:03.775Z,22.68
2022-10-06T09:55:41.596Z,22.80
2022-10-06T09:58:21.814Z,23.00
2022-10-06T10:00:56.247Z,23.07
2022-10-06T10:03:30.389Z,22.35
2022-10-06T10:06:00.091Z,22.63
2022-10-06T10:08:30.792Z,21.74
2022-10-06T10:11:27.889Z,22.23
2022-10-06T10:13:57.771Z,22.52
2022-10-06T10:16:27.614Z,21.56
2022-10-06T10:19:00.175Z,21.48
2022-10-06T10:21:33.322Z,20.99
2022-10-06T10:24:05.065Z,21.40
2022-10-06T10:26:50.112Z,21.03
2022-10-06T10:29:38.670Z,21.79
2022-10-06T10:32:15.338Z,22.15
2022-10-06T10:35:04.319Z,22.44
2022-10-06T10:37:42.397Z,22.65
2022-10-06T10:40:30.670Z,22.96
2022-10-06T10:43:07.963Z,23.22
2022-10-06T10:45:41.133Z,23.09
2022-10-06T10:48:16.497Z,23.46
2022-10-06T10:50:55.450Z,22.75
2022-10-06T10:53:30.280Z,22.82
2022-10-06T10:55:59.256Z,23.24
2022-10-06T10:58:33.140Z,23.55
2022-10-06T11:01:08.978Z,23.80
2022-10-06T11:03:37.588Z,24.01
2022-10-06T11:06:26.165Z,24.28
2022-10-06T11:08:59.290Z,24.41
2022-10-06T11:11:43.535Z,24.64
2022-10-06T11:14:27.368Z,24.00
2022-10-06T11:17:05.194Z,23.49
2022-10-06T11:19:45.357Z,23.37
2022-10-06T11:22:21.226Z,23.86
2022-10-06T11:24:58.163Z,24.07
2022-10-06T11:27:37.267Z,24.42
2022-10-06T11:30:13.077Z,24.77
2022-10-06T11:32:54.377Z,25.07
2022-10-06T11:35:26.907Z,25.27
2022-10-06T11:38:04.191Z,25.19
2022-10-06T11:40:42.164Z,24.26
2022-10-06T11:43:19.474Z,23.76
2022-10-06T11:46:00.072Z,24.03
2022-10-06T11:48:31.246Z,24.11
2022-10-06T11:51:29.087Z,23.75
2022-10-06T11:54:00.470Z,23.72
2022-10-06T11:56:46.763Z,23.90
2022-10-06T11:59:27.036Z,23.80
2022-10-06T12:02:03.130Z,24.25
2022-10-06T12:04:31.841Z,24.35
2022-10-06T12:07:02.083Z,23.70
2022-10-06T12:09:52.619Z,23.07
2022-10-06T12:13:06.810Z,23.38
2022-10-06T12:19:16.912Z,23.10
2022-10-06T12:21:54.999Z,23.14
2022-10-06T12:24:39.266Z,23.04
2022-10-06T12:27:28.946Z,22.90
2022-10-06T12:30:04.093Z,22.88
2022-10-06T12:32:46.602Z,23.37
2022-10-06T12:35:29.016Z,23.74
2022-10-06T12:38:00.498Z,22.88
2022-10-06T12:40:49.628Z,23.10
2022-10-06T12:43:57.118Z,23.61
2022-10-06T12:46:37.882Z,23.24
2022-10-06T12:49:31.916Z,22.41
2022-10-06T12:52:09.646Z,22.08
2022-10-06T12:54:47.970Z,22.51
2022-10-06T12:57:20.021Z,22.60
2022-10-06T12:59:49.428Z,22.25
2022-10-06T13:02:22.352Z,21.89
2022-10-06T13:04:54.438Z,21.92
2022-10-06T13:07:25.557Z,21.86
2022-10-06T13:09:55.778Z,21.78
2022-10-06T13:12:28.220Z,21.45
2022-10-06T13:15:16.679Z,21.25
2022-10-06T13:17:50.192Z,21.63
2022-10-06T13:20:36.813Z,21.51
2022-10-06T13:23:19.517Z,21.71
2022-10-06T13:25:50.312Z,21.53
2022-10-06T13:28:31.107Z,21.29
2022-10-06T13:33:40.262Z,21.59
2022-10-06T13:36:10.879Z,21.72
2022-10-06T13:38:41.299Z,21.58
2022-10-06T13:41:23.599Z,21.73
2022-10-06T13:43:55.318Z,21.39
2022-10-06T13:46:27.223Z,21.41
2022-10-06T13:49:00.913Z,21.37
2022-10-06T13:51:31.337Z,21.31
2022-10-06T13:54:02.177Z,21.33
2022-10-06T13:56:36.886Z,21.56
2022-10-06T13:59:33.790Z,21.45
2022-10-06T14:02:16.015Z,21.51
2022-10-06T14:04:46.409Z,21.70
2022-10-06T14:07:15.792Z,21.52
2022-10-06T14:09:44.242Z,21.36
2022-10-06T14:12:16.170Z,21.27
2022-10-06T14:14:48.572Z,21.45
2022-10-06T14:17:24.191Z,21.64
2022-10-06T14:19:54.108Z,21.55
2022-10-06T14:22:34.309Z,22.03
2022-10-06T14:25:03.109Z,21.79
2022-10-06T14:27:31.713Z,21.91
2022-10-06T14:30:00.228Z,21.86
2022-10-06T14:32:29.063Z,21.88
2022-10-06T14:34:59.000Z,21.88
2022-10-06T14:37:27.426Z,22.15
2022-10-06T14:39:56.480Z,22.13
2022-10-06T14:42:25.122Z,22.08
2022-10-06T14:44:53.496Z,22.08
2022-10-06T14:47:22.132Z,21.93
2022-10-06T14:49:50.626Z,22.00
2022-10-06T14:52:21.548Z,22.04
2022-10-06T14:54:50.790Z,21.82
2022-10-06T14:57:20.583Z,22.02
2022-10-06T14:59:48.933Z,21.92
2022-10-06T15:02:20.417Z,21.79
2022-10-06T15:04:49.454Z,21.70
2022-10-06T15:07:49.899Z,21.64
2022-10-06T15:10:20.169Z,21.43
2022-10-06T15:12:48.724Z,21.40
2022-10-06T15:15:17.494Z,21.22
2022-10-06T15:17:45.930Z,21.19
2022-10-06T15:20:14.826Z,21.29
2022-10-06T15:22:43.520Z,21.27
2022-10-06T15:25:33.390Z,21.32
2022-10-06T15:28:23.573Z,21.27
2022-10-06T15:30:52.266Z,21.37
2022-10-06T15:33:20.945Z,21.43
2022-10-06T15:36:15.462Z,21.39
2022-10-06T15:38:44.728Z,21.31
2022-10-06T15:41:13.804Z,21.26
2022-10-06T15:43:58.630Z,20.99
2022-10-06T15:46:30.235Z,21.00
2022-10-06T15:49:01.387Z,20.91
2022-10-06T15:51:31.547Z,20.78
2022-10-06T15:54:00.087Z,20.76
2022-10-06T15:56:31.157Z,20.76
2022-10-06T15:59:01.007Z,20.78
2022-10-06T16:01:42.967Z,20.76
2022-10-06T16:04:23.963Z,20.86
2022-10-06T16:06:55.814Z,20.86
2022-10-06T16:09:25.854Z,20.92
2022-10-06T16:11:55.620Z,20.88
2022-10-06T16:14:25.919Z,20.79
2022-10-06T16:16:58.998Z,20.94
2022-10-06T16:19:29.476Z,21.11
2022-10-06T16:21:59.192Z,20.96
2022-10-06T16:24:27.831Z,21.01
2022-10-06T16:26:58.632Z,21.11
2022-10-06T16:29:29.534Z,21.20
2022-10-06T16:31:59.144Z,21.23
2022-10-06T16:34:27.528Z,21.33
2022-10-06T16:36:56.271Z,21.39
2022-10-06T16:39:25.323Z,21.26
2022-10-06T16:41:54.134Z,21.33
2022-10-06T16:44:22.833Z,21.38
2022-10-06T16:46:52.617Z,21.26
2022-10-06T16:49:21.585Z,21.16
2022-10-06T16:51:50.216Z,21.37
2022-10-06T16:54:18.603Z,21.18
2022-10-06T16:56:48.988Z,21.29
2022-10-06T16:59:19.604Z,21.22
2022-10-06T17:01:48.849Z,21.41
2022-10-06T17:04:20.986Z,21.38
2022-10-06T17:06:51.983Z,21.25
2022-10-06T17:09:22.376Z,21.19
2022-10-06T17:11:52.911Z,21.28
2022-10-06T17:14:22.524Z,21.31
2022-10-06T17:16:53.269Z,21.36
2022-10-06T17:19:25.269Z,21.41
2022-10-06T17:21:58.538Z,21.51
2022-10-06T17:24:29.549Z,21.68
2022-10-06T17:26:59.341Z,21.68
2022-10-06T17:29:27.935Z,21.75
2022-10-06T17:31:59.073Z,21.77
2022-10-06T17:34:32.922Z,21.84
2022-10-06T17:37:03.660Z,21.88
2022-10-06T17:39:32.707Z,21.84
2022-10-06T17:42:01.411Z,21.85
2022-10-06T17:44:31.526Z,21.80
2022-10-06T17:47:01.444Z,21.84
2022-10-06T17:49:34.701Z,21.84
2022-10-06T17:52:03.739Z,21.79
2022-10-06T17:54:34.450Z,21.79
2022-10-06T17:57:02.982Z,21.82
2022-10-06T17:59:33.842Z,21.84
2022-10-06T18:02:03.937Z,21.81
2022-10-06T18:04:35.866Z,21.83
2022-10-06T18:07:05.354Z,21.80
2022-10-06T18:09:34.038Z,21.80
2022-10-06T18:12:02.825Z,21.79
2022-10-06T18:14:33.622Z,21.80
2022-10-06T18:17:04.051Z,21.77
2022-10-06T18:19:35.851Z,21.67
2022-10-06T18:22:10.115Z,21.69
2022-10-06T18:24:40.191Z,21.70
2022-10-06T18:27:09.821Z,21.64
2022-10-06T18:29:39.772Z,21.57
2022-10-06T18:33:00.257Z,21.51
2022-10-06T18:37:47.887Z,21.35
2022-10-06T18:40:16.733Z,21.33
2022-10-06T18:42:45.355Z,21.34
2022-10-06T18:49:11.481Z,21.19
2022-10-06T18:51:43.585Z,21.19
2022-10-06T18:54:26.902Z,21.21
2022-10-06T18:56:56.382Z,21.12
2022-10-06T18:59:31.357Z,20.97
2022-10-06T19:04:52.158Z,21.09
2022-10-06T19:07:22.548Z,21.11
2022-10-06T19:09:51.211Z,21.08
2022-10-06T19:12:19.992Z,21.06
2022-10-06T19:14:48.475Z,21.05
2022-10-06T19:17:17.331Z,20.98
2022-10-06T19:19:51.131Z,20.89
2022-10-06T19:22:24.747Z,20.84
2022-10-06T19:24:53.844Z,20.85
2022-10-06T19:27:25.529Z,20.84
2022-10-06T19:29:56.979Z,20.82
2022-10-06T19:32:28.046Z,20.78
2022-10-06T19:34:59.042Z,20.77
2022-10-06T19:37:31.234Z,20.77
2022-10-06T19:40:00.107Z,20.73
2022-10-06T19:42:45.603Z,20.71
2022-10-06T19:45:15.592Z,20.71
2022-10-06T19:47:47.069Z,20.70
2022-10-06T19:50:18.046Z,20.69
2022-10-06T19:52:47.896Z,20.67
2022-10-06T19:55:16.700Z,20.66
2022-10-06T19:57:45.549Z,20.63
2022-10-06T20:00:14.890Z,20.60
2022-10-06T20:02:44.886Z,20.59
2022-10-06T20:05:15.173Z,20.54
2022-10-06T20:07:46.185Z,20.48
2022-10-06T20:10:16.696Z,20.45
2022-10-06T20:12:45.038Z,20.45
2022-10-06T20:15:14.164Z,20.41
2022-10-06T20:17:45.535Z,20.35
2022-10-06T20:20:14.712Z,20.38
2022-10-06T20:22:43.429Z,20.37
2022-10-06T20:25:11.813Z,20.39
2022-10-06T20:27:41.699Z,20.31
2022-10-06T20:30:11.289Z,20.31
2022-10-06T20:32:39.713Z,20.18
2022-10-06T20:35:09.624Z,20.17
2022-10-06T20:37:41.838Z,20.05
2022-10-06T20:40:28.838Z,19.85
2022-10-06T20:43:00.845Z,19.90
2022-10-06T20:45:29.954Z,19.98
2022-10-06T20:48:00.132Z,20.03
2022-10-06T20:50:31.033Z,20.15
2022-10-06T20:52:59.666Z,20.15
2022-10-06T20:55:28.084Z,19.95
2022-10-06T20:57:56.764Z,19.76
2022-10-06T21:00:26.807Z,19.75
2022-10-06T21:02:56.355Z,19.78
2022-10-06T21:05:25.027Z,19.83
2022-10-06T21:07:53.754Z,19.89
2022-10-06T21:10:22.998Z,19.79
2022-10-06T21:12:51.583Z,19.61
2022-10-06T21:15:19.991Z,19.46
2022-10-06T21:17:49.744Z,19.41
2022-10-06T21:20:18.348Z,19.50
2022-10-06T21:22:46.731Z,19.48
2022-10-06T21:25:17.474Z,19.27
2022-10-06T21:27:47.288Z,19.37
2022-10-06T21:30:16.029Z,19.25
2022-10-06T21:32:44.410Z,19.07
2022-10-06T21:35:14.435Z,19.05
2022-10-06T21:37:43.076Z,19.18
2022-10-06T21:40:11.806Z,18.97
2022-10-06T21:42:40.492Z,18.60
2022-10-06T21:45:09.543Z,18.70
2022-10-06T21:47:37.914Z,18.58
2022-10-06T21:50:07.162Z,18.69
2022-10-06T21:52:36.962Z,18.81
2022-10-06T21:55:06.466Z,18.76
2022-10-06T21:57:34.770Z,18.72
2022-10-06T22:00:03.343Z,18.85
2022-10-06T22:02:41.605Z,18.95
2022-10-06T22:05:11.000Z,19.02
2022-10-06T22:07:40.763Z,18.97
2022-10-06T22:10:09.680Z,18.97
2022-10-06T22:12:37.983Z,18.97
2022-10-06T22:15:07.335Z,18.95
2022-10-06T22:17:35.955Z,18.85
2022-10-06T22:20:04.540Z,18.77
2022-10-06T22:22:32.910Z,18.67
2022-10-06T22:25:02.896Z,18.49
2022-10-06T22:27:32.323Z,18.42
2022-10-06T22:30:00.790Z,18.35
2022-10-06T22:32:29.385Z,18.39
2022-10-06T22:34:57.874Z,18.41
2022-10-06T22:37:26.250Z,18.38
2022-10-06T22:39:54.814Z,18.41
2022-10-06T22:42:24.642Z,18.41
2022-10-06T22:44:53.011Z,18.34
2022-10-06T22:47:21.584Z,18.26
2022-10-06T22:49:49.938Z,18.29
2022-10-06T22:52:18.342Z,18.30
2022-10-06T22:54:46.914Z,18.33
2022-10-06T22:57:15.213Z,18.36
2022-10-06T22:59:45.194Z,18.40
2022-10-06T23:02:13.808Z,18.32
2022-10-06T23:04:42.181Z,18.34
2022-10-06T23:07:10.517Z,18.30
2022-10-06T23:09:41.332Z,18.29
2022-10-06T23:12:09.754Z,18.28
2022-10-06T23:14:38.128Z,18.25
2022-10-06T23:17:08.098Z,18.21
2022-10-06T23:19:36.490Z,18.20
2022-10-06T23:22:05.268Z,18.17
2022-10-06T23:24:33.880Z,18.11
2022-10-06T23:27:04.458Z,18.00
2022-10-06T23:29:32.800Z,18.04
2022-10-06T23:32:01.394Z,18.01
2022-10-06T23:34:31.167Z,18.01
2022-10-06T23:36:59.549Z,18.01
2022-10-06T23:39:28.631Z,18.02
2022-10-06T23:41:57.043Z,17.80
2022-10-06T23:44:25.994Z,17.79
2022-10-06T23:46:54.757Z,17.73
2022-10-06T23:49:23.285Z,17.72
2022-10-06T23:51:53.044Z,17.73
2022-10-06T23:54:21.821Z,17.76
2022-10-06T23:56:51.406Z,17.74
2022-10-06T23:59:20.290Z,17.65
